sensor_id;sensor_type;location;lat;lon;timestamp;pressure;altitude;pressure_sealevel;temperature;humidity
61357;BME280;47227;46.752;23.576;2023-04-03T01:45:39;95776.46;;;4.80;76.34
61357;BME280;47227;46.752;23.576;2023-04-03T02:04:01;95795.81;;;4.80;76.29
61357;BME280;47227;46.752;23.576;2023-04-03T03:39:35;95847.19;;;3.74;81.62
61357;BME280;47227;46.752;23.576;2023-04-03T03:46:33;95849.16;;;3.84;81.57
61357;BME280;47227;46.752;23.576;2023-04-03T03:50:16;95848.38;;;3.90;81.46
61357;BME280;47227;46.752;23.576;2023-04-03T04:03:12;95856.83;;;3.89;81.20
61357;BME280;47227;46.752;23.576;2023-04-03T04:06:22;95859.71;;;3.90;81.13
61357;BME280;47227;46.752;23.576;2023-04-03T04:09:02;95856.85;;;3.94;81.11
61357;BME280;47227;46.752;23.576;2023-04-03T04:12:34;95858.50;;;4.00;81.05
61357;BME280;47227;46.752;23.576;2023-04-03T04:15:25;95864.63;;;4.01;81.13
61357;BME280;47227;46.752;23.576;2023-04-03T04:18:54;95863.80;;;4.02;81.14
61357;BME280;47227;46.752;23.576;2023-04-03T04:22:22;95859.88;;;4.03;80.84
61357;BME280;47227;46.752;23.576;2023-04-03T04:25:54;95864.13;;;4.00;80.52
61357;BME280;47227;46.752;23.576;2023-04-03T04:28:48;95859.25;;;3.98;80.49
61357;BME280;47227;46.752;23.576;2023-04-03T04:35:20;95864.73;;;3.99;80.84
61357;BME280;47227;46.752;23.576;2023-04-03T04:38:37;95867.52;;;4.00;80.72
61357;BME280;47227;46.752;23.576;2023-04-03T04:41:46;95867.36;;;4.01;80.77
61357;BME280;47227;46.752;23.576;2023-04-03T04:48:21;95861.45;;;4.01;80.53
61357;BME280;47227;46.752;23.576;2023-04-03T04:51:41;95864.77;;;3.99;80.57
61357;BME280;47227;46.752;23.576;2023-04-03T04:57:23;95868.09;;;4.04;80.66
61357;BME280;47227;46.752;23.576;2023-04-03T04:59:51;95865.66;;;4.10;80.64
61357;BME280;47227;46.752;23.576;2023-04-03T05:02:20;95867.52;;;4.17;80.61
61357;BME280;47227;46.752;23.576;2023-04-03T05:04:48;95876.42;;;4.20;80.41
61357;BME280;47227;46.752;23.576;2023-04-03T05:07:20;95874.49;;;4.23;80.16
61357;BME280;47227;46.752;23.576;2023-04-03T05:09:48;95876.48;;;4.25;79.79
61357;BME280;47227;46.752;23.576;2023-04-03T05:12:16;95879.02;;;4.27;79.86
61357;BME280;47227;46.752;23.576;2023-04-03T05:53:02;95880.45;;;4.84;77.55
61357;BME280;47227;46.752;23.576;2023-04-03T05:55:32;95881.27;;;4.85;77.19
61357;BME280;47227;46.752;23.576;2023-04-03T05:58:00;95887.05;;;4.86;77.27
61357;BME280;47227;46.752;23.576;2023-04-03T06:00:28;95882.08;;;4.88;77.24
61357;BME280;47227;46.752;23.576;2023-04-03T06:02:59;95883.48;;;4.90;77.03
61357;BME280;47227;46.752;23.576;2023-04-03T06:05:28;95882.70;;;4.92;76.78
61357;BME280;47227;46.752;23.576;2023-04-03T06:07:58;95884.98;;;4.94;76.87
61357;BME280;47227;46.752;23.576;2023-04-03T06:10:26;95882.04;;;4.97;76.66
61357;BME280;47227;46.752;23.576;2023-04-03T06:12:54;95888.30;;;4.98;76.48
61357;BME280;47227;46.752;23.576;2023-04-03T06:15:23;95889.19;;;5.00;76.34
61357;BME280;47227;46.752;23.576;2023-04-03T06:17:51;95889.39;;;5.00;76.34
61357;BME280;47227;46.752;23.576;2023-04-03T06:20:19;95892.05;;;5.02;76.46
61357;BME280;47227;46.752;23.576;2023-04-03T06:22:50;95894.78;;;5.07;76.41
61357;BME280;47227;46.752;23.576;2023-04-03T06:25:24;95897.85;;;5.12;75.93
61357;BME280;47227;46.752;23.576;2023-04-03T06:27:55;95896.20;;;5.08;75.69
61357;BME280;47227;46.752;23.576;2023-04-03T06:30:31;95895.30;;;5.11;75.53
61357;BME280;47227;46.752;23.576;2023-04-03T06:34:07;95898.85;;;5.12;75.27
61357;BME280;47227;46.752;23.576;2023-04-03T06:45:25;95898.31;;;5.17;75.50
61357;BME280;47227;46.752;23.576;2023-04-03T06:53:29;95914.80;;;5.47;75.07
61357;BME280;47227;46.752;23.576;2023-04-03T07:07:56;95919.36;;;5.89;73.09
61357;BME280;47227;46.752;23.576;2023-04-03T07:10:45;95917.79;;;5.91;73.05
61357;BME280;47227;46.752;23.576;2023-04-03T07:13:20;95914.21;;;5.92;73.68
61357;BME280;47227;46.752;23.576;2023-04-03T07:16:31;95917.27;;;6.02;73.32
61357;BME280;47227;46.752;23.576;2023-04-03T07:19:03;95916.77;;;6.11;73.22
61357;BME280;47227;46.752;23.576;2023-04-03T07:21:37;95914.79;;;6.16;72.74
61357;BME280;47227;46.752;23.576;2023-04-03T07:24:17;95907.89;;;6.13;72.31
61357;BME280;47227;46.752;23.576;2023-04-03T07:26:52;95910.79;;;6.22;72.34
61357;BME280;47227;46.752;23.576;2023-04-03T07:29:23;95916.13;;;6.26;71.76
61357;BME280;47227;46.752;23.576;2023-04-03T07:31:54;95923.62;;;6.08;71.48
61357;BME280;47227;46.752;23.576;2023-04-03T07:34:32;95925.23;;;6.08;71.67
61357;BME280;47227;46.752;23.576;2023-04-03T07:37:07;95927.57;;;6.18;71.59
61357;BME280;47227;46.752;23.576;2023-04-03T07:39:48;95925.72;;;6.25;71.78
61357;BME280;47227;46.752;23.576;2023-04-03T07:42:18;95931.62;;;6.29;71.47
61357;BME280;47227;46.752;23.576;2023-04-03T07:44:51;95930.77;;;6.41;71.45
61357;BME280;47227;46.752;23.576;2023-04-03T07:47:27;95931.72;;;6.52;71.18
61357;BME280;47227;46.752;23.576;2023-04-03T07:49:57;95938.89;;;6.61;71.01
61357;BME280;47227;46.752;23.576;2023-04-03T07:52:48;95943.71;;;6.64;70.56
61357;BME280;47227;46.752;23.576;2023-04-03T07:55:19;95940.55;;;6.72;70.23
61357;BME280;47227;46.752;23.576;2023-04-03T07:57:51;95943.37;;;6.76;69.85
61357;BME280;47227;46.752;23.576;2023-04-03T08:00:27;95946.88;;;6.90;69.69
61357;BME280;47227;46.752;23.576;2023-04-03T08:03:09;95947.15;;;7.00;68.69
61357;BME280;47227;46.752;23.576;2023-04-03T08:05:47;95946.73;;;7.02;68.10
61357;BME280;47227;46.752;23.576;2023-04-03T08:08:20;95953.52;;;7.10;68.37
61357;BME280;47227;46.752;23.576;2023-04-03T08:11:00;95951.05;;;7.20;67.89
61357;BME280;47227;46.752;23.576;2023-04-03T08:13:34;95959.31;;;7.31;68.15
61357;BME280;47227;46.752;23.576;2023-04-03T08:16:11;95960.48;;;7.45;67.60
61357;BME280;47227;46.752;23.576;2023-04-03T08:19:00;95969.11;;;7.48;66.57
61357;BME280;47227;46.752;23.576;2023-04-03T08:22:14;95969.63;;;7.55;66.31
61357;BME280;47227;46.752;23.576;2023-04-03T08:24:48;95974.60;;;7.65;65.93
61357;BME280;47227;46.752;23.576;2023-04-03T08:27:26;95971.03;;;7.60;65.11
61357;BME280;47227;46.752;23.576;2023-04-03T08:29:56;95974.26;;;7.66;65.08
61357;BME280;47227;46.752;23.576;2023-04-03T08:32:44;95982.06;;;7.67;64.94
61357;BME280;47227;46.752;23.576;2023-04-03T08:39:36;95981.49;;;7.46;65.25
61357;BME280;47227;46.752;23.576;2023-04-03T08:42:24;95987.34;;;7.44;65.84
61357;BME280;47227;46.752;23.576;2023-04-03T08:45:12;95984.28;;;7.51;65.56
61357;BME280;47227;46.752;23.576;2023-04-03T08:47:55;95977.40;;;7.51;65.88
61357;BME280;47227;46.752;23.576;2023-04-03T08:53:29;95977.65;;;7.59;65.76
61357;BME280;47227;46.752;23.576;2023-04-03T08:56:07;95976.35;;;7.67;65.38
61357;BME280;47227;46.752;23.576;2023-04-03T08:58:56;95978.39;;;7.73;65.42
61357;BME280;47227;46.752;23.576;2023-04-03T09:01:36;95983.27;;;7.90;65.35
61357;BME280;47227;46.752;23.576;2023-04-03T09:04:31;95981.98;;;8.07;64.77
61357;BME280;47227;46.752;23.576;2023-04-03T09:07:18;95985.69;;;8.05;64.02
61357;BME280;47227;46.752;23.576;2023-04-03T09:09:56;95985.23;;;7.92;63.62
61357;BME280;47227;46.752;23.576;2023-04-03T09:15:52;95994.66;;;7.94;63.59
61357;BME280;47227;46.752;23.576;2023-04-03T09:18:30;95995.94;;;7.99;64.34
61357;BME280;47227;46.752;23.576;2023-04-03T09:21:17;96004.98;;;8.03;64.02
61357;BME280;47227;46.752;23.576;2023-04-03T09:23:56;96001.31;;;7.88;64.10
61357;BME280;47227;46.752;23.576;2023-04-03T09:26:31;96008.36;;;7.82;64.28
61357;BME280;47227;46.752;23.576;2023-04-03T09:29:06;96002.55;;;7.63;64.35
61357;BME280;47227;46.752;23.576;2023-04-03T09:31:42;96006.55;;;7.36;65.56
61357;BME280;47227;46.752;23.576;2023-04-03T09:34:23;96006.36;;;7.54;65.44
61357;BME280;47227;46.752;23.576;2023-04-03T09:37:00;96003.20;;;7.27;66.13
61357;BME280;47227;46.752;23.576;2023-04-03T09:42:26;96014.25;;;7.54;65.74
61357;BME280;47227;46.752;23.576;2023-04-03T09:44:58;96013.49;;;7.47;65.41
61357;BME280;47227;46.752;23.576;2023-04-03T09:47:33;96013.66;;;7.45;65.83
61357;BME280;47227;46.752;23.576;2023-04-03T09:50:20;96021.20;;;7.51;65.40
61357;BME280;47227;46.752;23.576;2023-04-03T09:52:53;96020.63;;;7.46;65.37
61357;BME280;47227;46.752;23.576;2023-04-03T09:55:25;96024.39;;;7.43;65.43
61357;BME280;47227;46.752;23.576;2023-04-03T09:58:34;96026.48;;;7.37;65.64
61357;BME280;47227;46.752;23.576;2023-04-03T10:01:30;96023.20;;;7.24;65.47
61357;BME280;47227;46.752;23.576;2023-04-03T10:04:14;96016.58;;;7.22;65.80
61357;BME280;47227;46.752;23.576;2023-04-03T10:06:51;96014.79;;;7.29;66.15
61357;BME280;47227;46.752;23.576;2023-04-03T10:09:27;96017.55;;;7.24;66.31
61357;BME280;47227;46.752;23.576;2023-04-03T10:12:05;96024.56;;;7.25;66.56
61357;BME280;47227;46.752;23.576;2023-04-03T10:14:37;96025.17;;;7.30;66.34
61357;BME280;47227;46.752;23.576;2023-04-03T10:17:22;96028.41;;;7.44;66.11
61357;BME280;47227;46.752;23.576;2023-04-03T10:20:02;96026.83;;;7.56;65.94
61357;BME280;47227;46.752;23.576;2023-04-03T10:33:13;96031.73;;;7.80;64.60
61357;BME280;47227;46.752;23.576;2023-04-03T10:39:36;96026.52;;;7.60;64.72
61357;BME280;47227;46.752;23.576;2023-04-03T10:42:55;96023.48;;;7.50;64.88
61357;BME280;47227;46.752;23.576;2023-04-03T10:46:28;96023.98;;;7.47;65.01
61357;BME280;47227;46.752;23.576;2023-04-03T10:53:08;96026.46;;;7.18;66.30
61357;BME280;47227;46.752;23.576;2023-04-03T10:56:01;96024.18;;;7.17;66.24
61357;BME280;47227;46.752;23.576;2023-04-03T10:58:35;96024.96;;;7.16;66.13
61357;BME280;47227;46.752;23.576;2023-04-03T11:01:13;96022.60;;;7.04;66.61
61357;BME280;47227;46.752;23.576;2023-04-03T11:07:21;96024.85;;;7.07;67.28
61357;BME280;47227;46.752;23.576;2023-04-03T11:10:13;96024.02;;;7.10;66.92
61357;BME280;47227;46.752;23.576;2023-04-03T11:13:01;96022.11;;;7.06;67.50
61357;BME280;47227;46.752;23.576;2023-04-03T11:15:36;96023.57;;;7.06;68.26
61357;BME280;47227;46.752;23.576;2023-04-03T11:18:20;96021.42;;;7.03;68.43
61357;BME280;47227;46.752;23.576;2023-04-03T11:21:06;96024.24;;;7.00;68.58
61357;BME280;47227;46.752;23.576;2023-04-03T11:24:00;96018.88;;;7.01;69.05
61357;BME280;47227;46.752;23.576;2023-04-03T11:36:59;96015.38;;;6.65;68.66
61357;BME280;47227;46.752;23.576;2023-04-03T11:39:50;96015.80;;;6.60;68.63
61357;BME280;47227;46.752;23.576;2023-04-03T11:42:52;96013.34;;;6.50;68.31
61357;BME280;47227;46.752;23.576;2023-04-03T11:45:31;96009.61;;;6.44;68.27
61357;BME280;47227;46.752;23.576;2023-04-03T11:48:41;96009.92;;;6.41;68.96
61357;BME280;47227;46.752;23.576;2023-04-03T11:54:44;96017.05;;;6.41;68.80
61357;BME280;47227;46.752;23.576;2023-04-03T11:57:43;96012.81;;;6.42;69.02
61357;BME280;47227;46.752;23.576;2023-04-03T12:00:50;96015.51;;;6.42;68.82
61357;BME280;47227;46.752;23.576;2023-04-03T12:06:58;96011.27;;;6.41;68.42
61357;BME280;47227;46.752;23.576;2023-04-03T12:09:35;96011.77;;;6.38;68.51
61357;BME280;47227;46.752;23.576;2023-04-03T12:12:33;96007.90;;;6.32;69.33
61357;BME280;47227;46.752;23.576;2023-04-03T12:15:25;96012.75;;;6.33;69.30
61357;BME280;47227;46.752;23.576;2023-04-03T12:17:56;96008.73;;;6.30;68.94
61357;BME280;47227;46.752;23.576;2023-04-03T12:21:20;96005.98;;;6.25;69.39
61357;BME280;47227;46.752;23.576;2023-04-03T12:24:25;96009.57;;;6.25;69.58
61357;BME280;47227;46.752;23.576;2023-04-03T12:27:05;96005.48;;;6.29;69.49
61357;BME280;47227;46.752;23.576;2023-04-03T12:29:54;95995.58;;;6.34;69.79
61357;BME280;47227;46.752;23.576;2023-04-03T12:32:46;96002.45;;;6.36;69.59
61357;BME280;47227;46.752;23.576;2023-04-03T12:35:54;95998.33;;;6.37;69.38
61357;BME280;47227;46.752;23.576;2023-04-03T12:38:41;95997.14;;;6.40;69.46
61357;BME280;47227;46.752;23.576;2023-04-03T12:41:43;95990.00;;;6.43;69.21
61357;BME280;47227;46.752;23.576;2023-04-03T12:51:16;95992.02;;;6.65;68.50
61357;BME280;47227;46.752;23.576;2023-04-03T12:54:02;95986.04;;;6.67;68.77
61357;BME280;47227;46.752;23.576;2023-04-03T12:56:35;95983.90;;;6.70;68.26
61357;BME280;47227;46.752;23.576;2023-04-03T12:59:30;95981.27;;;6.76;68.24
61357;BME280;47227;46.752;23.576;2023-04-03T13:02:15;95983.64;;;6.77;68.17
61357;BME280;47227;46.752;23.576;2023-04-03T13:04:53;95982.08;;;6.86;68.47
61357;BME280;47227;46.752;23.576;2023-04-03T13:07:33;95980.77;;;6.91;68.39
61357;BME280;47227;46.752;23.576;2023-04-03T13:10:16;95979.58;;;6.97;68.60
61357;BME280;47227;46.752;23.576;2023-04-03T13:12:56;95972.48;;;6.99;68.47
61357;BME280;47227;46.752;23.576;2023-04-03T13:15:45;95979.20;;;6.97;68.91
61357;BME280;47227;46.752;23.576;2023-04-03T13:18:55;95972.64;;;6.99;69.10
61357;BME280;47227;46.752;23.576;2023-04-03T13:28:23;95968.02;;;6.95;68.66
61357;BME280;47227;46.752;23.576;2023-04-03T13:34:19;95965.92;;;6.85;68.96
61357;BME280;47227;46.752;23.576;2023-04-03T13:37:03;95967.33;;;6.85;69.23
61357;BME280;47227;46.752;23.576;2023-04-03T13:43:01;95971.00;;;6.92;68.96
61357;BME280;47227;46.752;23.576;2023-04-03T13:45:59;95964.63;;;6.92;69.19
61357;BME280;47227;46.752;23.576;2023-04-03T13:48:35;95962.30;;;6.93;69.33
61357;BME280;47227;46.752;23.576;2023-04-03T13:51:16;95963.02;;;6.98;69.11
61357;BME280;47227;46.752;23.576;2023-04-03T13:53:57;95964.39;;;7.06;69.30
61357;BME280;47227;46.752;23.576;2023-04-03T13:56:58;95963.89;;;7.13;68.90
61357;BME280;47227;46.752;23.576;2023-04-03T13:59:41;95963.96;;;7.15;68.84
61357;BME280;47227;46.752;23.576;2023-04-03T14:02:20;95967.46;;;7.18;68.89
61357;BME280;47227;46.752;23.576;2023-04-03T14:04:55;95959.11;;;7.20;68.87
61357;BME280;47227;46.752;23.576;2023-04-03T14:07:31;95958.04;;;7.22;68.98
61357;BME280;47227;46.752;23.576;2023-04-03T14:10:06;95950.94;;;7.22;68.86
61357;BME280;47227;46.752;23.576;2023-04-03T14:12:38;95947.85;;;7.21;68.77
61357;BME280;47227;46.752;23.576;2023-04-03T14:15:27;95953.34;;;7.20;68.78
61357;BME280;47227;46.752;23.576;2023-04-03T14:18:21;95956.38;;;7.13;68.54
61357;BME280;47227;46.752;23.576;2023-04-03T14:20:50;95948.10;;;7.06;69.16
61357;BME280;47227;46.752;23.576;2023-04-03T14:23:18;95948.92;;;7.11;69.27
61357;BME280;47227;46.752;23.576;2023-04-03T14:25:46;95949.05;;;7.21;69.83
61357;BME280;47227;46.752;23.576;2023-04-03T14:28:21;95950.20;;;7.32;69.47
61357;BME280;47227;46.752;23.576;2023-04-03T14:34:05;95949.49;;;7.43;68.60
61357;BME280;47227;46.752;23.576;2023-04-03T14:36:50;95951.14;;;7.47;68.49
61357;BME280;47227;46.752;23.576;2023-04-03T14:39:29;95948.55;;;7.52;68.47
61357;BME280;47227;46.752;23.576;2023-04-03T14:41:58;95951.23;;;7.56;68.29
61357;BME280;47227;46.752;23.576;2023-04-03T14:44:33;95957.25;;;7.53;68.02
61357;BME280;47227;46.752;23.576;2023-04-03T14:47:01;95958.91;;;7.52;68.21
61357;BME280;47227;46.752;23.576;2023-04-03T14:49:30;95956.68;;;7.51;67.88
61357;BME280;47227;46.752;23.576;2023-04-03T14:52:21;95959.13;;;7.51;68.03
61357;BME280;47227;46.752;23.576;2023-04-03T14:55:05;95963.52;;;7.49;67.62
61357;BME280;47227;46.752;23.576;2023-04-03T15:00:30;95963.26;;;7.37;67.46
61357;BME280;47227;46.752;23.576;2023-04-03T15:02:59;95966.58;;;7.33;67.46
61357;BME280;47227;46.752;23.576;2023-04-03T15:05:27;95972.16;;;7.32;67.61
61357;BME280;47227;46.752;23.576;2023-04-03T15:07:55;95976.16;;;7.31;67.53
61357;BME280;47227;46.752;23.576;2023-04-03T15:10:28;95978.87;;;7.31;67.67
61357;BME280;47227;46.752;23.576;2023-04-03T15:12:57;95974.55;;;7.28;67.43
61357;BME280;47227;46.752;23.576;2023-04-03T15:15:28;95980.43;;;7.28;67.40
61357;BME280;47227;46.752;23.576;2023-04-03T15:17:57;95978.17;;;7.24;67.10
61357;BME280;47227;46.752;23.576;2023-04-03T15:20:35;95975.00;;;7.19;67.13
61357;BME280;47227;46.752;23.576;2023-04-03T15:23:04;95973.66;;;7.18;67.22
61357;BME280;47227;46.752;23.576;2023-04-03T15:25:33;95974.33;;;7.16;67.13
61357;BME280;47227;46.752;23.576;2023-04-03T15:28:02;95973.45;;;7.14;67.03
61357;BME280;47227;46.752;23.576;2023-04-03T15:30:36;95973.90;;;7.13;67.22
61357;BME280;47227;46.752;23.576;2023-04-03T15:33:12;95966.10;;;7.12;67.33
61357;BME280;47227;46.752;23.576;2023-04-03T15:35:58;95965.05;;;7.17;67.47
61357;BME280;47227;46.752;23.576;2023-04-03T15:45:20;95960.98;;;7.25;67.06
61357;BME280;47227;46.752;23.576;2023-04-03T15:47:50;95961.30;;;7.26;66.63
61357;BME280;47227;46.752;23.576;2023-04-03T15:50:25;95966.70;;;7.24;66.36
61357;BME280;47227;46.752;23.576;2023-04-03T15:53:14;95970.63;;;7.17;65.77
61357;BME280;47227;46.752;23.576;2023-04-03T15:55:44;95974.76;;;7.17;66.12
61357;BME280;47227;46.752;23.576;2023-04-03T15:58:34;95975.25;;;7.16;66.27
61357;BME280;47227;46.752;23.576;2023-04-03T16:01:05;95971.39;;;7.15;66.27
61357;BME280;47227;46.752;23.576;2023-04-03T16:03:56;95967.66;;;7.14;66.24
61357;BME280;47227;46.752;23.576;2023-04-03T16:06:46;95961.17;;;7.13;66.10
61357;BME280;47227;46.752;23.576;2023-04-03T16:09:16;95959.79;;;7.11;66.11
61357;BME280;47227;46.752;23.576;2023-04-03T16:11:46;95956.21;;;7.10;65.92
61357;BME280;47227;46.752;23.576;2023-04-03T16:15:06;95960.77;;;7.08;65.95
61357;BME280;47227;46.752;23.576;2023-04-03T16:17:44;95965.08;;;7.05;65.90
61357;BME280;47227;46.752;23.576;2023-04-03T16:23:03;95965.83;;;7.00;66.08
61357;BME280;47227;46.752;23.576;2023-04-03T16:29:03;95962.01;;;6.99;66.25
61357;BME280;47227;46.752;23.576;2023-04-03T16:31:32;95963.04;;;6.99;66.30
61357;BME280;47227;46.752;23.576;2023-04-03T16:34:01;95961.77;;;6.98;66.29
61357;BME280;47227;46.752;23.576;2023-04-03T16:36:29;95964.61;;;6.97;66.51
61357;BME280;47227;46.752;23.576;2023-04-03T16:38:57;95964.03;;;6.96;66.58
61357;BME280;47227;46.752;23.576;2023-04-03T16:41:25;95963.23;;;6.96;66.52
61357;BME280;47227;46.752;23.576;2023-04-03T16:43:53;95966.49;;;6.94;66.58
61357;BME280;47227;46.752;23.576;2023-04-03T16:46:24;95973.23;;;6.89;66.60
61357;BME280;47227;46.752;23.576;2023-04-03T16:48:54;95975.75;;;6.87;66.06
61357;BME280;47227;46.752;23.576;2023-04-03T16:51:22;95974.93;;;6.80;65.33
61357;BME280;47227;46.752;23.576;2023-04-03T16:53:50;95979.24;;;6.83;65.70
61357;BME280;47227;46.752;23.576;2023-04-03T16:56:18;95985.27;;;6.81;65.02
61357;BME280;47227;46.752;23.576;2023-04-03T16:58:47;95983.17;;;6.72;64.97
61357;BME280;47227;46.752;23.576;2023-04-03T17:01:17;95983.45;;;6.68;64.58
61357;BME280;47227;46.752;23.576;2023-04-03T17:03:46;95984.80;;;6.65;64.61
61357;BME280;47227;46.752;23.576;2023-04-03T17:06:19;95984.33;;;6.63;64.70
61357;BME280;47227;46.752;23.576;2023-04-03T17:08:48;95985.56;;;6.60;64.28
61357;BME280;47227;46.752;23.576;2023-04-03T17:11:27;95987.66;;;6.55;64.83
61357;BME280;47227;46.752;23.576;2023-04-03T17:13:55;95987.20;;;6.54;64.86
61357;BME280;47227;46.752;23.576;2023-04-03T17:16:24;95988.58;;;6.52;64.68
61357;BME280;47227;46.752;23.576;2023-04-03T17:18:53;95988.28;;;6.47;64.51
61357;BME280;47227;46.752;23.576;2023-04-03T17:21:22;95994.16;;;6.40;64.66
61357;BME280;47227;46.752;23.576;2023-04-03T17:23:56;95993.49;;;6.34;64.18
61357;BME280;47227;46.752;23.576;2023-04-03T17:27:02;95997.98;;;6.29;64.24
61357;BME280;47227;46.752;23.576;2023-04-03T17:29:30;95989.98;;;6.23;64.48
61357;BME280;47227;46.752;23.576;2023-04-03T17:31:58;95993.48;;;6.19;64.46
61357;BME280;47227;46.752;23.576;2023-04-03T17:34:26;95991.40;;;6.15;64.40
61357;BME280;47227;46.752;23.576;2023-04-03T17:36:54;95993.88;;;6.08;64.77
61357;BME280;47227;46.752;23.576;2023-04-03T17:39:22;95998.14;;;6.06;64.49
61357;BME280;47227;46.752;23.576;2023-04-03T17:41:52;96004.04;;;6.07;64.37
61357;BME280;47227;46.752;23.576;2023-04-03T17:44:21;96006.92;;;6.05;64.22
61357;BME280;47227;46.752;23.576;2023-04-03T17:46:49;96011.16;;;6.04;64.28
61357;BME280;47227;46.752;23.576;2023-04-03T17:49:17;96017.92;;;6.02;64.30
61357;BME280;47227;46.752;23.576;2023-04-03T17:51:47;96022.58;;;5.98;64.01
61357;BME280;47227;46.752;23.576;2023-04-03T17:54:15;96032.05;;;5.94;63.94
61357;BME280;47227;46.752;23.576;2023-04-03T17:56:43;96028.95;;;5.90;63.99
61357;BME280;47227;46.752;23.576;2023-04-03T17:59:15;96027.60;;;5.85;64.16
61357;BME280;47227;46.752;23.576;2023-04-03T18:01:45;96026.94;;;5.81;64.12
61357;BME280;47227;46.752;23.576;2023-04-03T18:04:14;96031.52;;;5.77;64.19
61357;BME280;47227;46.752;23.576;2023-04-03T18:06:45;96027.83;;;5.72;64.01
61357;BME280;47227;46.752;23.576;2023-04-03T18:09:23;96028.17;;;5.67;63.98
61357;BME280;47227;46.752;23.576;2023-04-03T18:11:52;96019.98;;;5.60;64.04
61357;BME280;47227;46.752;23.576;2023-04-03T18:14:22;96023.14;;;5.55;64.08
61357;BME280;47227;46.752;23.576;2023-04-03T18:19:38;96030.05;;;5.50;64.82
61357;BME280;47227;46.752;23.576;2023-04-03T18:22:11;96035.13;;;5.48;64.88
61357;BME280;47227;46.752;23.576;2023-04-03T18:24:41;96033.91;;;5.40;65.01
61357;BME280;47227;46.752;23.576;2023-04-03T18:27:15;96033.71;;;5.39;64.79
61357;BME280;47227;46.752;23.576;2023-04-03T18:29:48;96038.96;;;5.35;64.83
61357;BME280;47227;46.752;23.576;2023-04-03T18:32:19;96046.79;;;5.30;65.00
61357;BME280;47227;46.752;23.576;2023-04-03T18:59:35;96049.64;;;4.90;64.58
61357;BME280;47227;46.752;23.576;2023-04-03T19:02:05;96047.08;;;4.84;64.42
61357;BME280;47227;46.752;23.576;2023-04-03T19:04:35;96048.73;;;4.78;64.57
61357;BME280;47227;46.752;23.576;2023-04-03T19:07:03;96044.47;;;4.69;64.60
61357;BME280;47227;46.752;23.576;2023-04-03T19:09:33;96047.46;;;4.65;64.90
61357;BME280;47227;46.752;23.576;2023-04-03T19:12:02;96038.54;;;4.62;64.94
61357;BME280;47227;46.752;23.576;2023-04-03T19:14:29;96034.02;;;4.59;65.12
61357;BME280;47227;46.752;23.576;2023-04-03T19:16:58;96042.49;;;4.53;65.00
61357;BME280;47227;46.752;23.576;2023-04-03T19:19:27;96037.44;;;4.48;64.98
61357;BME280;47227;46.752;23.576;2023-04-03T19:21:55;96051.83;;;4.43;65.11
61357;BME280;47227;46.752;23.576;2023-04-03T19:24:23;96051.91;;;4.38;65.34
61357;BME280;47227;46.752;23.576;2023-04-03T19:26:51;96047.80;;;4.37;65.54
61357;BME280;47227;46.752;23.576;2023-04-03T19:29:19;96043.79;;;4.35;65.60
61357;BME280;47227;46.752;23.576;2023-04-03T19:31:47;96045.74;;;4.30;65.86
61357;BME280;47227;46.752;23.576;2023-04-03T19:34:15;96046.36;;;4.27;65.90
61357;BME280;47227;46.752;23.576;2023-04-03T19:36:43;96044.66;;;4.26;65.82
61357;BME280;47227;46.752;23.576;2023-04-03T19:39:12;96046.39;;;4.25;66.01
61357;BME280;47227;46.752;23.576;2023-04-03T19:41:42;96041.83;;;4.26;66.16
61357;BME280;47227;46.752;23.576;2023-04-03T19:44:12;96034.40;;;4.25;65.80
61357;BME280;47227;46.752;23.576;2023-04-03T19:46:40;96033.10;;;4.23;65.78
61357;BME280;47227;46.752;23.576;2023-04-03T19:49:18;96031.71;;;4.17;65.64
61357;BME280;47227;46.752;23.576;2023-04-03T19:51:46;96022.30;;;4.16;65.64
61357;BME280;47227;46.752;23.576;2023-04-03T19:54:14;96024.51;;;4.14;65.68
61357;BME280;47227;46.752;23.576;2023-04-03T19:56:42;96021.84;;;4.09;65.90
61357;BME280;47227;46.752;23.576;2023-04-03T19:59:10;96019.55;;;4.06;66.09
61357;BME280;47227;46.752;23.576;2023-04-03T20:01:38;96017.77;;;4.03;66.00
61357;BME280;47227;46.752;23.576;2023-04-03T20:04:08;96016.17;;;3.93;65.97
61357;BME280;47227;46.752;23.576;2023-04-03T20:06:36;96015.59;;;3.89;65.67
61357;BME280;47227;46.752;23.576;2023-04-03T20:09:04;96017.38;;;3.86;65.58
61357;BME280;47227;46.752;23.576;2023-04-03T20:11:34;96013.95;;;3.85;65.73
61357;BME280;47227;46.752;23.576;2023-04-03T20:14:03;96012.26;;;3.83;65.62
61357;BME280;47227;46.752;23.576;2023-04-03T20:16:31;96011.39;;;3.83;65.94
61357;BME280;47227;46.752;23.576;2023-04-03T20:19:02;96005.43;;;3.83;66.26
61357;BME280;47227;46.752;23.576;2023-04-03T20:21:32;96011.22;;;3.82;66.32
61357;BME280;47227;46.752;23.576;2023-04-03T20:28:16;96012.58;;;3.79;66.88
61357;BME280;47227;46.752;23.576;2023-04-03T20:37:52;96007.94;;;3.77;67.36
61357;BME280;47227;46.752;23.576;2023-04-03T20:42:18;96003.80;;;3.69;67.17
61357;BME280;47227;46.752;23.576;2023-04-03T20:50:12;96005.95;;;3.51;67.51
61357;BME280;47227;46.752;23.576;2023-04-03T21:20:22;95989.71;;;3.24;67.29
61357;BME280;47227;46.752;23.576;2023-04-03T21:24:55;95987.28;;;3.09;67.66
61357;BME280;47227;46.752;23.576;2023-04-03T21:33:56;95980.32;;;2.85;67.99
61357;BME280;47227;46.752;23.576;2023-04-03T23:43:10;95918.90;;;1.45;73.44
